Time;durP1;ratioP1;P1;durP2;ratioP2;P2;SDS_P1;SDS_P2;PMS_P1;PMS_P2;Temp;Humidity;BMP_temperature;BMP_pressure;BME280_temperature;BME280_humidity;BME280_pressure;Samples;Min_cycle;Max_cycle;Signal;HPM_P1;HPM_P2
2023/09/07 00:01:55;;;;;;;3.15;1.77;;;19.50;99.90;;;;;;4879760;29;20040;-70
2023/09/07 00:04:22;;;;;;;3.55;1.52;;;19.40;99.90;;;;;;4879575;29;20529;-70
2023/09/07 00:06:49;;;;;;;7.70;1.80;;;19.50;99.90;;;;;;4862823;29;20025;-70
2023/09/07 00:09:18;;;;;;;7.35;1.88;;;19.40;99.90;;;;;;4847464;29;20173;-70
2023/09/07 00:11:45;;;;;;;5.70;1.45;;;19.40;99.90;;;;;;4862662;29;20033;-70
2023/09/07 00:14:11;;;;;;;1.98;1.35;;;19.30;99.90;;;;;;4879395;29;20615;-70
2023/09/07 00:16:38;;;;;;;4.50;1.98;;;19.40;99.90;;;;;;4862735;29;20096;-70
2023/09/07 00:19:05;;;;;;;3.33;1.85;;;19.50;99.90;;;;;;4862772;29;20128;-70
2023/09/07 00:21:31;;;;;;;3.33;1.70;;;19.60;99.90;;;;;;4878969;29;20032;-70
2023/09/07 00:23:56;;;;;;;3.45;1.95;;;19.60;99.90;;;;;;4879250;29;20391;-71
2023/09/07 00:26:22;;;;;;;3.78;1.80;;;19.60;99.90;;;;;;4862929;29;20033;-70
2023/09/07 00:28:48;;;;;;;2.63;1.48;;;19.60;99.90;;;;;;4879561;29;20053;-70
2023/09/07 00:31:14;;;;;;;3.65;1.70;;;19.50;99.90;;;;;;4878631;29;20513;-70
2023/09/07 00:33:39;;;;;;;2.72;1.45;;;19.50;99.90;;;;;;4862481;29;20033;-70
2023/09/07 00:36:05;;;;;;;4.32;2.25;;;19.60;99.90;;;;;;4879369;29;20496;-70
2023/09/07 00:38:31;;;;;;;3.20;1.73;;;19.70;99.90;;;;;;4862405;29;20081;-70
2023/09/07 00:40:57;;;;;;;7.10;1.92;;;19.70;99.90;;;;;;4878519;29;20036;-70
2023/09/07 00:43:23;;;;;;;4.40;1.83;;;19.70;99.90;;;;;;4878657;29;20036;-70
2023/09/07 00:45:49;;;;;;;2.95;1.90;;;19.70;99.90;;;;;;4878595;29;20108;-70
2023/09/07 00:48:16;;;;;;;3.97;2.00;;;19.70;99.90;;;;;;4861827;29;20028;-70
2023/09/07 00:50:42;;;;;;;3.20;1.90;;;19.70;99.90;;;;;;4861695;29;20498;-70
2023/09/07 00:53:10;;;;;;;4.85;1.58;;;19.60;99.90;;;;;;4861700;29;20441;-70
2023/09/07 00:55:36;;;;;;;4.22;2.20;;;19.10;99.90;;;;;;4846675;29;20029;-70
2023/09/07 00:58:07;;;;;;;7.78;2.13;;;19.30;99.90;;;;;;4861797;29;20037;-70
2023/09/07 01:00:34;;;;;;;4.90;2.00;;;19.20;99.90;;;;;;4878023;29;20116;-70
2023/09/07 01:03:01;;;;;;;3.83;2.03;;;19.30;99.90;;;;;;4878155;29;20459;-70
2023/09/07 01:05:51;;;;;;;9.35;1.85;;;19.40;99.90;;;;;;4872744;29;20060;-70
2023/09/07 01:08:35;;;;;;;2.85;1.50;;;19.40;99.90;;;;;;4877032;29;20033;-71
2023/09/07 01:11:01;;;;;;;4.65;1.85;;;19.40;99.90;;;;;;4869683;29;20516;-70
2023/09/07 01:13:27;;;;;;;3.65;1.73;;;19.40;99.90;;;;;;4877964;29;20021;-70
2023/09/07 01:15:52;;;;;;;2.55;1.60;;;19.30;99.90;;;;;;4877994;29;20032;-70
2023/09/07 01:18:19;;;;;;;4.60;2.08;;;19.10;99.90;;;;;;4842814;29;20033;-70
2023/09/07 01:20:47;;;;;;;3.38;1.92;;;18.70;99.90;;;;;;4875537;29;20482;-71
2023/09/07 01:23:13;;;;;;;5.75;2.30;;;18.40;99.90;;;;;;4846010;29;20056;-70
2023/09/07 01:25:41;;;;;;;2.50;1.65;;;18.50;99.90;;;;;;4864234;29;20529;-70
2023/09/07 01:28:07;;;;;;;2.55;1.63;;;18.50;99.90;;;;;;4861367;29;20463;-70
2023/09/07 01:30:37;;;;;;;4.28;2.00;;;18.50;99.90;;;;;;4877510;29;20047;-70
2023/09/07 01:33:03;;;;;;;3.47;2.15;;;18.60;99.90;;;;;;4877643;29;20436;-70
2023/09/07 01:35:33;;;;;;;4.85;1.85;;;18.80;99.90;;;;;;4877859;29;20195;-70
2023/09/07 01:37:59;;;;;;;5.70;2.35;;;18.70;99.90;;;;;;4861374;29;20029;-70
2023/09/07 01:40:25;;;;;;;3.00;1.77;;;18.80;99.90;;;;;;4877282;29;20033;-69
2023/09/07 01:42:51;;;;;;;3.38;1.48;;;18.80;99.90;;;;;;4862045;29;20032;-70
2023/09/07 01:45:16;;;;;;;3.75;1.48;;;18.80;99.90;;;;;;4877476;29;20439;-70
2023/09/07 01:47:42;;;;;;;3.10;1.48;;;18.90;99.90;;;;;;4860657;29;20037;-70
2023/09/07 01:50:08;;;;;;;5.20;1.65;;;18.90;99.90;;;;;;4881316;29;20052;-70
2023/09/07 01:52:34;;;;;;;4.50;2.08;;;18.90;99.90;;;;;;4864229;29;20047;-70
2023/09/07 01:55:00;;;;;;;7.90;2.10;;;19.00;99.90;;;;;;4861211;29;20033;-70
2023/09/07 01:57:25;;;;;;;2.42;1.30;;;19.00;99.90;;;;;;4877811;29;20036;-70
2023/09/07 01:59:51;;;;;;;4.22;1.70;;;19.00;99.90;;;;;;4877509;29;20029;-70
2023/09/07 02:02:17;;;;;;;2.50;1.63;;;19.00;99.90;;;;;;4877768;29;20484;-70
2023/09/07 02:04:45;;;;;;;6.32;2.13;;;19.00;99.90;;;;;;4877857;29;20037;-70
2023/09/07 02:07:13;;;;;;;3.30;1.90;;;19.00;99.90;;;;;;4877675;29;20029;-70
2023/09/07 02:09:38;;;;;;;4.07;2.03;;;18.90;99.90;;;;;;4860831;29;20131;-70
2023/09/07 02:12:05;;;;;;;3.75;1.75;;;18.80;99.90;;;;;;4868121;29;20076;-70
2023/09/07 02:14:31;;;;;;;7.30;1.75;;;18.70;99.90;;;;;;4877564;29;20026;-70
2023/09/07 02:16:56;;;;;;;2.90;1.85;;;18.30;99.90;;;;;;4860944;29;20044;-70
2023/09/07 02:19:23;;;;;;;3.28;1.55;;;18.20;99.90;;;;;;4860813;29;20077;-70
2023/09/07 02:21:51;;;;;;;5.22;2.25;;;18.00;99.90;;;;;;4878346;29;20120;-70
2023/09/07 02:24:17;;;;;;;2.85;1.60;;;18.20;99.90;;;;;;4865062;29;20029;-70
2023/09/07 02:26:45;;;;;;;6.63;2.70;;;18.20;99.90;;;;;;4848948;29;20037;-70
2023/09/07 02:29:12;;;;;;;6.10;1.63;;;18.20;99.90;;;;;;4872379;29;20172;-69
2023/09/07 02:31:39;;;;;;;4.18;1.80;;;18.20;99.90;;;;;;4880508;29;20137;-70
2023/09/07 02:34:05;;;;;;;3.13;1.58;;;18.00;99.90;;;;;;4864132;29;20025;-70
2023/09/07 02:36:31;;;;;;;2.33;1.27;;;18.00;99.90;;;;;;4881188;29;20375;-70
2023/09/07 02:38:56;;;;;;;3.72;1.58;;;18.00;99.90;;;;;;4881022;29;20037;-70
2023/09/07 02:41:22;;;;;;;2.53;1.45;;;18.10;99.90;;;;;;4848472;29;20033;-70
2023/09/07 02:43:48;;;;;;;9.07;1.90;;;18.10;99.90;;;;;;4880921;29;20037;-70
2023/09/07 02:46:13;;;;;;;4.30;1.85;;;18.10;99.90;;;;;;4888549;29;20108;-70
2023/09/07 02:48:39;;;;;;;3.17;1.83;;;18.00;99.90;;;;;;4863870;29;20029;-70
2023/09/07 02:51:05;;;;;;;4.45;1.98;;;18.00;99.90;;;;;;4880361;29;20115;-70
2023/09/07 02:53:30;;;;;;;4.43;2.00;;;18.00;99.90;;;;;;4880700;29;20033;-70
2023/09/07 02:55:56;;;;;;;3.90;1.70;;;18.10;99.90;;;;;;4880701;29;20040;-70
2023/09/07 02:58:23;;;;;;;3.22;1.67;;;18.20;99.90;;;;;;4860819;29;20081;-70
2023/09/07 03:00:49;;;;;;;2.45;1.55;;;18.20;99.90;;;;;;4878652;29;20025;-70
2023/09/07 03:03:15;;;;;;;3.05;1.58;;;18.20;99.90;;;;;;4862328;29;20405;-71
2023/09/07 03:05:43;;;;;;;4.82;2.05;;;18.20;99.90;;;;;;4860589;29;20022;-70
2023/09/07 03:08:08;;;;;;;5.13;1.75;;;18.30;99.90;;;;;;4866696;29;20108;-71
2023/09/07 03:10:39;;;;;;;2.72;1.70;;;18.30;99.90;;;;;;4861556;29;20473;-71
2023/09/07 03:13:06;;;;;;;4.88;1.90;;;18.40;99.90;;;;;;4860306;29;20037;-71
2023/09/07 03:15:33;;;;;;;4.35;2.03;;;18.40;99.90;;;;;;4856522;29;20033;-71
2023/09/07 03:17:59;;;;;;;3.38;1.83;;;18.60;99.90;;;;;;4879614;29;20029;-70
2023/09/07 03:20:26;;;;;;;3.90;1.80;;;18.60;99.90;;;;;;4844623;29;20373;-70
2023/09/07 03:22:52;;;;;;;4.38;2.00;;;18.40;99.90;;;;;;4862085;29;20113;-71
2023/09/07 03:25:17;;;;;;;2.38;1.20;;;18.20;99.90;;;;;;4868953;29;20475;-71
2023/09/07 03:27:43;;;;;;;6.22;1.63;;;18.20;99.90;;;;;;4845351;29;20044;-70
2023/09/07 03:30:09;;;;;;;3.47;1.80;;;18.10;99.90;;;;;;4879429;29;20044;-70
2023/09/07 03:32:35;;;;;;;4.50;1.58;;;18.00;99.90;;;;;;4878979;29;20049;-70
2023/09/07 03:35:09;;;;;;;4.00;2.10;;;18.10;99.90;;;;;;4879391;29;20434;-70
2023/09/07 03:37:35;;;;;;;3.92;1.88;;;18.10;99.90;;;;;;4879556;29;20796;-70
2023/09/07 03:40:01;;;;;;;4.32;1.88;;;18.00;99.90;;;;;;4862700;29;20033;-70
2023/09/07 03:42:27;;;;;;;5.15;2.15;;;17.80;99.90;;;;;;4844297;29;20033;-69
2023/09/07 03:44:52;;;;;;;3.63;1.50;;;17.80;99.90;;;;;;4878022;29;20033;-69
2023/09/07 03:47:18;;;;;;;3.92;2.38;;;17.80;99.90;;;;;;4879411;29;20032;-69
2023/09/07 03:49:44;;;;;;;2.92;1.85;;;17.80;99.90;;;;;;4879092;29;20032;-69
2023/09/07 03:52:11;;;;;;;5.60;2.50;;;17.80;99.90;;;;;;4879488;29;20043;-70
2023/09/07 03:54:37;;;;;;;4.63;1.95;;;17.70;99.90;;;;;;4865946;29;20033;-69
2023/09/07 03:57:03;;;;;;;5.03;2.25;;;17.60;99.90;;;;;;4879379;29;20040;-69
2023/09/07 03:59:29;;;;;;;5.82;2.88;;;17.50;99.90;;;;;;4879143;29;20045;-69
2023/09/07 04:01:55;;;;;;;4.80;2.53;;;17.50;99.90;;;;;;4863020;29;20103;-69
2023/09/07 04:04:21;;;;;;;4.20;2.63;;;17.50;99.90;;;;;;4879241;29;20057;-69
2023/09/07 04:06:50;;;;;;;6.65;2.28;;;17.50;99.90;;;;;;4871898;29;20401;-69
2023/09/07 04:09:16;;;;;;;5.53;2.80;;;17.50;99.90;;;;;;4877900;29;20033;-69
2023/09/07 04:11:41;;;;;;;4.50;2.58;;;17.50;99.90;;;;;;4864438;29;20532;-69
2023/09/07 04:14:07;;;;;;;4.45;2.25;;;17.40;99.90;;;;;;4862382;29;20021;-69
2023/09/07 04:16:33;;;;;;;4.07;2.60;;;17.40;99.90;;;;;;4865960;29;20040;-69
2023/09/07 04:18:58;;;;;;;4.60;2.60;;;17.40;99.90;;;;;;4878686;29;20033;-69
2023/09/07 04:21:24;;;;;;;5.22;2.60;;;17.30;99.90;;;;;;4878273;29;20072;-69
2023/09/07 04:23:50;;;;;;;9.50;4.32;;;17.30;99.90;;;;;;4878750;29;20052;-69
2023/09/07 04:26:15;;;;;;;9.13;3.65;;;17.30;99.90;;;;;;4878652;29;20092;-69
2023/09/07 04:28:41;;;;;;;5.10;3.03;;;17.20;99.90;;;;;;4878774;29;20116;-69
2023/09/07 04:31:07;;;;;;;5.63;2.63;;;17.10;99.90;;;;;;4868247;29;20033;-69
2023/09/07 04:33:33;;;;;;;9.55;2.63;;;17.20;99.90;;;;;;4878398;29;20443;-69
2023/09/07 04:36:13;;;;;;;4.40;2.35;;;17.10;99.90;;;;;;4869814;29;20033;-69
2023/09/07 04:38:40;;;;;;;7.68;3.83;;;17.00;99.90;;;;;;4864300;29;20037;-69
2023/09/07 04:41:13;;;;;;;8.82;4.05;;;17.00;99.90;;;;;;4868374;29;20474;-69
2023/09/07 04:43:43;;;;;;;5.97;2.97;;;16.90;99.90;;;;;;4858501;29;20129;-69
2023/09/07 04:46:12;;;;;;;5.72;2.70;;;16.90;99.90;;;;;;4877981;29;20025;-69
2023/09/07 04:48:40;;;;;;;4.57;2.38;;;17.00;99.90;;;;;;4864911;29;20098;-69
2023/09/07 04:51:08;;;;;;;5.90;3.00;;;17.00;99.90;;;;;;4878161;29;20071;-69
2023/09/07 04:53:37;;;;;;;5.97;2.50;;;17.00;99.90;;;;;;4872775;29;20039;-69
2023/09/07 04:56:04;;;;;;;5.65;2.28;;;17.00;99.90;;;;;;4870690;29;20029;-69
2023/09/07 04:58:30;;;;;;;6.05;2.85;;;16.90;99.90;;;;;;4869254;29;20025;-69
2023/09/07 05:01:05;;;;;;;6.43;2.90;;;16.90;99.90;;;;;;4861865;29;20029;-69
2023/09/07 05:03:31;;;;;;;7.78;3.15;;;16.80;99.90;;;;;;4873225;29;20028;-69
2023/09/07 05:05:57;;;;;;;8.07;3.03;;;16.70;99.90;;;;;;4877914;29;20029;-69
2023/09/07 05:08:24;;;;;;;4.13;2.28;;;16.70;99.90;;;;;;4878086;29;20474;-69
2023/09/07 05:10:56;;;;;;;5.03;2.47;;;16.70;99.90;;;;;;4877451;29;20108;-69
2023/09/07 05:13:23;;;;;;;10.05;2.53;;;16.70;99.90;;;;;;4877850;29;20025;-69
2023/09/07 05:15:53;;;;;;;4.68;2.38;;;16.70;99.90;;;;;;4877607;29;20060;-69
2023/09/07 05:18:20;;;;;;;9.80;3.40;;;16.70;99.90;;;;;;4866964;29;20029;-69
2023/09/07 05:20:48;;;;;;;4.60;2.50;;;16.80;99.90;;;;;;4858790;29;20030;-69
2023/09/07 05:23:17;;;;;;;6.35;2.97;;;16.80;99.90;;;;;;4868659;29;20033;-70
2023/09/07 05:25:54;;;;;;;9.02;2.28;;;16.80;99.90;;;;;;4861558;29;20037;-70
2023/09/07 05:28:22;;;;;;;3.28;1.90;;;16.90;99.90;;;;;;4869110;29;20040;-70
2023/09/07 05:30:48;;;;;;;5.43;2.88;;;16.90;99.90;;;;;;4862397;29;20037;-70
2023/09/07 05:33:16;;;;;;;7.28;2.85;;;16.90;99.90;;;;;;4866917;29;20060;-70
2023/09/07 05:35:43;;;;;;;5.28;3.00;;;16.90;99.90;;;;;;4858220;29;20100;-70
2023/09/07 05:38:09;;;;;;;5.55;3.00;;;17.00;99.90;;;;;;4875333;29;20123;-70
2023/09/07 05:40:43;;;;;;;5.22;2.70;;;16.90;99.90;;;;;;4857480;29;20109;-70
2023/09/07 05:43:10;;;;;;;4.50;2.17;;;17.00;99.90;;;;;;4877611;29;20033;-70
2023/09/07 05:45:40;;;;;;;5.10;2.83;;;17.00;99.90;;;;;;4877768;29;20096;-70
2023/09/07 05:48:07;;;;;;;5.53;2.42;;;17.00;99.90;;;;;;4854266;29;20405;-70
2023/09/07 05:50:36;;;;;;;6.28;2.65;;;17.00;99.90;;;;;;4864656;29;20695;-70
2023/09/07 05:53:02;;;;;;;4.38;2.63;;;17.00;99.90;;;;;;4877604;29;20088;-70
2023/09/07 05:55:28;;;;;;;4.78;2.70;;;17.00;99.90;;;;;;4865824;29;20031;-70
2023/09/07 05:57:55;;;;;;;6.55;2.92;;;17.10;99.90;;;;;;4864022;29;20121;-70
2023/09/07 06:00:21;;;;;;;4.95;2.55;;;17.20;99.90;;;;;;4869695;29;20024;-69
2023/09/07 06:02:47;;;;;;;5.78;2.78;;;17.30;99.90;;;;;;4881674;29;20036;-69
2023/09/07 06:05:13;;;;;;;11.00;2.60;;;17.30;99.90;;;;;;4881710;29;20040;-69
2023/09/07 06:07:39;;;;;;;3.15;2.10;;;17.40;99.90;;;;;;4881469;29;20033;-69
2023/09/07 06:10:05;;;;;;;3.50;2.15;;;17.50;99.90;;;;;;4881157;29;20089;-69
2023/09/07 06:12:34;;;;;;;4.82;2.40;;;17.50;99.90;;;;;;4864641;29;20036;-69
2023/09/07 06:15:01;;;;;;;4.28;2.20;;;17.60;99.90;;;;;;4864504;29;20021;-70
2023/09/07 06:17:27;;;;;;;7.43;2.97;;;17.60;99.90;;;;;;4881289;29;20058;-69
2023/09/07 06:19:54;;;;;;;5.72;2.55;;;17.80;99.90;;;;;;4880863;29;20128;-70
2023/09/07 06:22:20;;;;;;;6.25;2.38;;;17.90;99.90;;;;;;4864629;29;20053;-69
2023/09/07 06:24:46;;;;;;;6.47;3.00;;;17.90;99.90;;;;;;4848792;29;20431;-69
2023/09/07 06:27:12;;;;;;;6.53;3.03;;;18.00;99.90;;;;;;4864365;29;20029;-69
2023/09/07 06:29:37;;;;;;;4.88;2.33;;;18.10;99.90;;;;;;4864403;29;20045;-70
2023/09/07 06:32:03;;;;;;;4.88;2.25;;;18.20;99.90;;;;;;4863955;29;20064;-70
2023/09/07 06:34:29;;;;;;;5.55;2.45;;;18.30;99.90;;;;;;4848957;29;20128;-70
2023/09/07 06:36:55;;;;;;;9.30;2.60;;;18.30;99.90;;;;;;4864274;29;20478;-70
2023/09/07 06:39:21;;;;;;;5.35;2.65;;;18.40;99.90;;;;;;4866511;29;20124;-70
2023/09/07 06:41:47;;;;;;;4.40;2.00;;;18.40;99.90;;;;;;4882854;29;20470;-70
2023/09/07 06:44:13;;;;;;;4.45;1.98;;;18.50;99.90;;;;;;4880960;29;20068;-70
2023/09/07 06:46:40;;;;;;;10.27;2.15;;;18.50;99.90;;;;;;4848511;29;20043;-70
2023/09/07 06:49:06;;;;;;;4.20;2.30;;;18.60;99.90;;;;;;4880989;29;20021;-70
2023/09/07 06:51:32;;;;;;;5.68;2.35;;;18.60;99.90;;;;;;4880594;29;20036;-70
2023/09/07 06:53:58;;;;;;;6.47;2.80;;;18.70;99.90;;;;;;4880568;29;20415;-70
2023/09/07 06:56:24;;;;;;;7.57;3.22;;;18.70;99.90;;;;;;4880104;29;20056;-70
2023/09/07 06:58:51;;;;;;;5.47;2.55;;;18.70;99.90;;;;;;4863515;29;20101;-70
2023/09/07 07:01:17;;;;;;;7.13;2.22;;;18.70;99.90;;;;;;4880159;29;20407;-70
2023/09/07 07:03:42;;;;;;;4.20;2.28;;;18.80;99.90;;;;;;4888007;29;20071;-70
2023/09/07 07:06:08;;;;;;;4.18;2.30;;;18.90;99.90;;;;;;4880251;29;20025;-69
2023/09/07 07:08:34;;;;;;;5.15;2.42;;;19.00;99.90;;;;;;4879647;29;20073;-70
2023/09/07 07:11:00;;;;;;;5.43;2.45;;;19.20;99.90;;;;;;4879397;29;20056;-69
2023/09/07 07:13:26;;;;;;;4.85;3.03;;;19.30;99.90;;;;;;4880046;29;20452;-69
2023/09/07 07:15:51;;;;;;;4.22;2.42;;;19.40;99.90;;;;;;4863416;29;20089;-69
2023/09/07 07:18:17;;;;;;;3.25;1.90;;;19.50;99.90;;;;;;4863339;29;20025;-69
2023/09/07 07:20:44;;;;;;;4.15;2.13;;;19.60;99.90;;;;;;4879493;29;20033;-69
2023/09/07 07:23:12;;;;;;;6.32;2.28;;;19.70;99.90;;;;;;4863347;29;20032;-70
2023/09/07 07:25:38;;;;;;;6.18;1.98;;;19.80;99.90;;;;;;4863061;29;20139;-70
2023/09/07 07:28:05;;;;;;;4.75;2.15;;;20.00;99.90;;;;;;4863242;29;20099;-70
2023/09/07 07:30:36;;;;;;;4.90;2.00;;;20.10;99.90;;;;;;4862959;29;20025;-70
2023/09/07 07:33:03;;;;;;;;;;;20.20;99.90;;;;;;4863509;29;20433;-70
2023/09/07 07:35:31;;;;;;;4.60;2.25;;;20.30;99.90;;;;;;4879762;29;20364;-70
2023/09/07 07:37:56;;;;;;;3.30;1.80;;;20.40;99.90;;;;;;4862899;29;20036;-70
2023/09/07 07:40:22;;;;;;;3.75;1.80;;;20.60;99.90;;;;;;4862696;29;20037;-70
2023/09/07 07:42:48;;;;;;;4.82;2.30;;;20.70;99.90;;;;;;4863044;29;20025;-71
2023/09/07 07:45:14;;;;;;;5.60;2.00;;;20.80;99.90;;;;;;4863081;29;20148;-71
2023/09/07 07:47:43;;;;;;;6.85;1.95;;;21.00;99.90;;;;;;4862779;29;20478;-71
2023/09/07 07:50:09;;;;;;;3.88;2.10;;;21.00;99.90;;;;;;4879192;29;20048;-71
2023/09/07 07:52:35;;;;;;;3.33;2.28;;;21.20;99.90;;;;;;4879420;29;20489;-71
2023/09/07 07:55:01;;;;;;;5.30;2.47;;;21.40;99.90;;;;;;4879433;29;20025;-70
2023/09/07 07:57:27;;;;;;;4.15;1.98;;;21.60;99.90;;;;;;4879260;29;20047;-71
2023/09/07 07:59:53;;;;;;;4.03;2.25;;;21.60;99.90;;;;;;4879079;29;20057;-71
2023/09/07 08:02:20;;;;;;;6.80;1.80;;;21.70;99.90;;;;;;4863097;29;20037;-71
2023/09/07 08:04:45;;;;;;;7.13;2.03;;;21.90;99.90;;;;;;4879339;29;20033;-70
2023/09/07 08:07:11;;;;;;;3.10;1.88;;;22.10;99.90;;;;;;4879199;29;20100;-70
2023/09/07 08:09:37;;;;;;;4.60;1.95;;;22.10;99.90;;;;;;4878982;29;20061;-70
2023/09/07 08:12:05;;;;;;;5.20;2.40;;;22.20;99.90;;;;;;4861943;29;20029;-70
2023/09/07 08:14:31;;;;;;;4.57;2.20;;;22.30;99.90;;;;;;4862466;29;20029;-70
2023/09/07 08:16:58;;;;;;;5.50;1.90;;;22.40;99.90;;;;;;4861987;29;20025;-70
2023/09/07 08:19:24;;;;;;;3.53;2.08;;;22.60;99.90;;;;;;4861777;29;20057;-69
2023/09/07 08:21:51;;;;;;;4.93;1.90;;;22.60;99.90;;;;;;4861907;29;20072;-70
2023/09/07 08:24:18;;;;;;;4.43;2.28;;;22.60;99.90;;;;;;4862605;29;20116;-70
2023/09/07 08:26:43;;;;;;;3.08;1.90;;;22.60;99.90;;;;;;4878857;29;20029;-70
2023/09/07 08:29:10;;;;;;;3.88;2.10;;;22.70;99.90;;;;;;4878908;29;20500;-70
2023/09/07 08:31:38;;;;;;;4.75;2.05;;;22.60;99.90;;;;;;4878240;29;20056;-70
2023/09/07 08:34:06;;;;;;;6.75;2.30;;;22.80;99.90;;;;;;4846873;29;20482;-70
2023/09/07 08:36:33;;;;;;;5.82;2.20;;;22.80;99.90;;;;;;4862023;29;20033;-70
2023/09/07 08:39:05;;;;;;;3.53;1.88;;;23.00;99.90;;;;;;4862013;29;20033;-70
2023/09/07 08:41:37;;;;;;;8.70;2.88;;;23.10;99.90;;;;;;4862118;29;20037;-70
2023/09/07 08:44:06;;;;;;;4.72;2.13;;;23.20;99.90;;;;;;4867986;29;20040;-70
2023/09/07 08:46:33;;;;;;;8.52;2.97;;;23.30;99.90;;;;;;4878353;29;20040;-70
2023/09/07 08:49:01;;;;;;;3.15;1.77;;;23.40;99.90;;;;;;4869459;29;20044;-70
2023/09/07 08:51:31;;;;;;;3.20;1.45;;;23.50;99.90;;;;;;4861694;29;20489;-70
2023/09/07 08:54:00;;;;;;;3.53;1.80;;;23.60;99.90;;;;;;4878249;29;20052;-70
2023/09/07 08:56:26;;;;;;;3.13;1.80;;;23.80;99.90;;;;;;4861797;29;20029;-70
2023/09/07 08:58:52;;;;;;;5.05;1.70;;;23.90;99.90;;;;;;4877976;29;20462;-70
2023/09/07 09:01:21;;;;;;;3.90;2.00;;;23.90;99.90;;;;;;4878297;29;20088;-70
2023/09/07 09:03:49;;;;;;;6.47;2.03;;;24.00;99.90;;;;;;4846624;29;20051;-71
2023/09/07 09:06:18;;;;;;;5.72;2.55;;;24.10;99.90;;;;;;4846342;29;20025;-70
2023/09/07 09:08:50;;;;;;;3.40;2.03;;;24.10;99.90;;;;;;4878301;29;20062;-70
2023/09/07 09:11:17;;;;;;;3.58;1.88;;;24.00;99.90;;;;;;4845846;29;20517;-70
2023/09/07 09:13:43;;;;;;;2.20;1.48;;;24.20;99.90;;;;;;4861560;29;20116;-70
2023/09/07 09:16:10;;;;;;;6.30;1.92;;;24.40;99.90;;;;;;4878213;29;20386;-70
2023/09/07 09:18:37;;;;;;;5.47;2.50;;;24.50;99.90;;;;;;4868556;29;20029;-69
2023/09/07 09:21:04;;;;;;;18.10;1.85;;;24.60;99.90;;;;;;4861546;29;20029;-69
2023/09/07 09:23:35;;;;;;;4.47;1.90;;;24.80;99.90;;;;;;4861314;29;20067;-70
2023/09/07 09:26:03;;;;;;;3.22;2.00;;;24.90;99.90;;;;;;4861454;29;20410;-69
2023/09/07 09:28:31;;;;;;;2.58;1.50;;;25.00;99.90;;;;;;4861378;29;20056;-70
2023/09/07 09:30:59;;;;;;;2.75;1.70;;;25.00;99.90;;;;;;4862738;29;20032;-70
2023/09/07 09:33:26;;;;;;;4.25;1.60;;;25.10;99.90;;;;;;4866119;29;20044;-70
2023/09/07 09:35:54;;;;;;;2.75;2.00;;;25.20;99.90;;;;;;4860937;29;20485;-69
2023/09/07 09:38:20;;;;;;;3.45;2.00;;;25.10;99.90;;;;;;4845450;29;20033;-70
2023/09/07 09:40:45;;;;;;;4.30;2.00;;;25.30;99.90;;;;;;4860634;29;20033;-71
2023/09/07 09:43:12;;;;;;;6.57;1.77;;;25.60;99.90;;;;;;4861545;29;20029;-70
2023/09/07 09:45:39;;;;;;;1.98;1.50;;;25.70;99.90;;;;;;4860974;29;20387;-70
2023/09/07 09:48:06;;;;;;;3.00;1.60;;;25.50;99.90;;;;;;4877591;29;20042;-69
2023/09/07 09:50:37;;;;;;;3.92;2.33;;;25.60;99.90;;;;;;4860837;29;20534;-70
2023/09/07 09:53:07;;;;;;;3.58;2.22;;;25.90;99.90;;;;;;4861284;29;20026;-70
2023/09/07 09:55:38;;;;;;;2.50;1.52;;;26.10;99.70;;;;;;4860991;29;20025;-71
2023/09/07 09:58:04;;;;;;;;;;;26.20;99.10;;;;;;4877746;29;20036;-70
2023/09/07 10:00:31;;;;;;;5.57;1.65;;;26.30;99.90;;;;;;4860589;29;20420;-70
2023/09/07 10:03:07;;;;;;;2.50;1.65;;;26.50;98.80;;;;;;4860677;29;20505;-71
2023/09/07 10:05:34;;;;;;;2.67;2.05;;;26.70;98.50;;;;;;4877523;29;20119;-70
2023/09/07 10:08:14;;;;;;;4.70;2.03;;;26.70;98.30;;;;;;4860571;29;20112;-70
2023/09/07 10:10:43;;;;;;;3.90;1.95;;;27.00;98.50;;;;;;4857459;29;20042;-70
2023/09/07 10:13:08;;;;;;;3.83;1.67;;;27.10;98.20;;;;;;4877198;29;20117;-70
2023/09/07 10:15:38;;;;;;;3.80;1.77;;;27.00;98.10;;;;;;4845175;29;20530;-70
2023/09/07 10:18:11;;;;;;;2.17;1.55;;;27.10;97.50;;;;;;4877325;29;20032;-70
2023/09/07 10:20:58;;;;;;;2.67;1.50;;;27.40;96.40;;;;;;4877019;29;20044;-70
2023/09/07 10:23:40;;;;;;;6.03;1.40;;;27.20;96.40;;;;;;4877336;29;20033;-70
2023/09/07 10:26:18;;;;;;;10.13;1.95;;;27.30;97.20;;;;;;4877537;29;20041;-70
2023/09/07 10:28:45;;;;;;;1.83;1.38;;;27.40;96.90;;;;;;4861048;29;20108;-71
2023/09/07 10:31:17;;;;;;;5.03;1.60;;;27.70;96.40;;;;;;4876960;29;20039;-70
2023/09/07 10:33:43;;;;;;;2.67;1.92;;;27.60;96.80;;;;;;4860782;29;20542;-71
2023/09/07 10:36:22;;;;;;;3.38;1.70;;;27.90;96.60;;;;;;4860656;29;20033;-70
2023/09/07 10:38:48;;;;;;;2.78;1.27;;;28.00;95.90;;;;;;4877112;29;20036;-70
2023/09/07 10:41:14;;;;;;;4.55;1.45;;;28.20;94.70;;;;;;4860287;29;20041;-70
2023/09/07 10:43:53;;;;;;;2.92;1.77;;;28.50;94.50;;;;;;4879069;29;20558;-71
2023/09/07 10:46:20;;;;;;;2.58;1.40;;;28.40;94.50;;;;;;4864093;29;20029;-70
2023/09/07 10:48:52;;;;;;;3.40;1.73;;;28.20;93.80;;;;;;4863821;29;20056;-70
2023/09/07 10:51:19;;;;;;;2.83;1.50;;;28.20;95.30;;;;;;4863704;29;20029;-70
2023/09/07 10:53:45;;;;;;;4.15;1.88;;;28.40;94.50;;;;;;4880450;29;20071;-70
2023/09/07 10:56:11;;;;;;;3.47;1.63;;;28.80;93.30;;;;;;4864137;29;20386;-70
2023/09/07 10:58:40;;;;;;;2.63;1.63;;;29.30;93.50;;;;;;4863597;29;20061;-69
2023/09/07 11:01:06;;;;;;;1.98;1.27;;;29.40;93.20;;;;;;4880093;29;20025;-69
2023/09/07 11:03:33;;;;;;;3.75;1.70;;;29.30;92.80;;;;;;4863544;29;20125;-69
2023/09/07 11:06:11;;;;;;;8.10;1.92;;;29.00;92.70;;;;;;4863606;29;20060;-70
2023/09/07 11:08:37;;;;;;;1.90;1.20;;;29.30;93.30;;;;;;4860570;29;20045;-70
2023/09/07 11:11:04;;;;;;;1.77;1.20;;;29.70;92.40;;;;;;4862573;29;20037;-70
2023/09/07 11:13:30;;;;;;;2.42;1.33;;;29.70;92.40;;;;;;4863405;29;20037;-71
2023/09/07 11:15:58;;;;;;;2.33;1.30;;;29.70;91.30;;;;;;4863536;29;20021;-75
2023/09/07 11:18:25;;;;;;;5.45;1.40;;;29.70;92.00;;;;;;4880197;29;20033;-70
2023/09/07 11:20:52;;;;;;;3.08;1.90;;;30.30;90.70;;;;;;4879677;29;20375;-70
2023/09/07 11:23:20;;;;;;;2.63;1.38;;;29.80;91.70;;;;;;4863443;29;20481;-70
2023/09/07 11:25:48;;;;;;;4.03;1.50;;;30.20;91.40;;;;;;4880461;29;20049;-70
2023/09/07 11:28:18;;;;;;;2.72;1.35;;;30.00;91.50;;;;;;4863277;29;20429;-69
2023/09/07 11:30:54;;;;;;;4.10;1.80;;;30.30;91.70;;;;;;4887398;29;20048;-69
2023/09/07 11:33:22;;;;;;;3.42;1.40;;;30.60;90.00;;;;;;4862996;29;20062;-70
2023/09/07 11:35:48;;;;;;;2.50;1.42;;;30.70;91.20;;;;;;4863228;29;20032;-70
2023/09/07 11:38:16;;;;;;;4.32;1.35;;;30.50;89.90;;;;;;4880052;29;20055;-70
2023/09/07 11:40:45;;;;;;;4.03;2.05;;;30.60;88.70;;;;;;4862676;29;20052;-71
2023/09/07 11:43:16;;;;;;;3.83;1.30;;;30.80;88.50;;;;;;4887281;29;20036;-70
2023/09/07 11:45:43;;;;;;;1.58;1.10;;;31.00;88.20;;;;;;4879475;29;20029;-70
2023/09/07 11:48:10;;;;;;;1.80;0.95;;;31.40;88.10;;;;;;4863359;29;20132;-70
2023/09/07 11:50:37;;;;;;;2.97;1.63;;;32.00;84.90;;;;;;4862636;29;20044;-70
2023/09/07 11:53:04;;;;;;;2.47;1.52;;;32.20;84.40;;;;;;4879674;29;20036;-70
2023/09/07 11:55:30;;;;;;;4.20;1.60;;;32.40;82.20;;;;;;4879586;29;20040;-70
2023/09/07 11:57:56;;;;;;;3.50;1.45;;;32.20;81.90;;;;;;4862647;29;20051;-70
2023/09/07 12:00:22;;;;;;;2.53;1.27;;;32.70;81.70;;;;;;4862401;29;20025;-71
2023/09/07 12:02:48;;;;;;;6.57;1.60;;;32.50;79.70;;;;;;4879740;29;20069;-71
2023/09/07 12:05:15;;;;;;;2.00;1.10;;;32.50;78.60;;;;;;4879323;29;20430;-70
2023/09/07 12:07:45;;;;;;;1.92;1.10;;;32.60;78.40;;;;;;4862652;29;20041;-70
2023/09/07 12:10:13;;;;;;;1.85;1.20;;;32.40;79.10;;;;;;4878889;29;20037;-70
2023/09/07 12:12:43;;;;;;;3.63;1.10;;;32.00;80.20;;;;;;4879389;29;20144;-70
2023/09/07 12:15:13;;;;;;;2.00;1.30;;;32.00;83.10;;;;;;4879345;29;20041;-70
2023/09/07 12:17:39;;;;;;;2.67;1.40;;;31.90;82.70;;;;;;4862973;29;20033;-69
2023/09/07 12:20:10;;;;;;;2.85;1.55;;;31.80;80.40;;;;;;4861814;29;20440;-69
2023/09/07 12:22:39;;;;;;;2.17;1.17;;;31.90;82.20;;;;;;4879245;29;20072;-69
2023/09/07 12:25:10;;;;;;;2.10;1.13;;;33.00;79.20;;;;;;4878732;29;20032;-69
2023/09/07 12:27:36;;;;;;;2.90;1.40;;;33.10;80.10;;;;;;4879096;29;20037;-69
2023/09/07 12:30:08;;;;;;;2.75;1.40;;;33.40;77.90;;;;;;4878631;29;20068;-70
2023/09/07 12:32:33;;;;;;;0.98;0.75;;;33.00;75.60;;;;;;4878867;29;20041;-69
2023/09/07 12:34:59;;;;;;;6.43;1.30;;;33.80;76.30;;;;;;4879074;29;20037;-70
2023/09/07 12:37:25;;;;;;;1.65;1.17;;;34.80;74.50;;;;;;4878818;29;20025;-70
2023/09/07 12:39:51;;;;;;;1.95;0.93;;;33.40;71.60;;;;;;4861978;29;20033;-70
2023/09/07 12:42:17;;;;;;;2.90;1.50;;;32.80;74.10;;;;;;4846300;29;20025;-70
2023/09/07 12:44:44;;;;;;;3.70;1.05;;;33.50;72.70;;;;;;4862403;29;20479;-70
2023/09/07 12:47:10;;;;;;;1.80;1.05;;;35.00;73.50;;;;;;4862823;29;20035;-69
2023/09/07 12:49:36;;;;;;;2.55;1.35;;;35.90;68.80;;;;;;4878792;29;20404;-70